PRIVATE WETTERSTATION BILLIGHEIM-ALLFELD                       ZURCK
Wetterdaten: Mittwoch, 18.10.2017
Datum Zeit Temp. A. Temp. A. min Temp. A. max Feuchte A. Luftdruck Regen Wind Richtung Richtung Sonnenschein ET Solar Taupunkt Windchill Windben Empfang
18.10.2017 00:00 9,1 C 9,1 C 9,3 C 89 % 1017,6 hPa 0,0 l/m 0,0 km/h (0 Bft) N 0 0 min 0,000 mm 0 W/m 7,4 C 9,1 C 0,0 km/h (0 Bft) 100 %
18.10.2017 00:10 9,1 C 9,1 C 9,1 C 89 % 1017,5 hPa 0,0 l/m 0,0 km/h (0 Bft) N 0 0 min 0,000 mm 0 W/m 7,4 C 9,1 C 0,0 km/h (0 Bft) 100 %
18.10.2017 00:20 8,9 C 8,9 C 9,1 C 89 % 1017,6 hPa 0,0 l/m 0,0 km/h (0 Bft) N 0 0 min 0,000 mm 0 W/m 7,2 C 8,9 C 0,0 km/h (0 Bft) 100 %
18.10.2017 00:30 8,9 C 8,9 C 8,9 C 89 % 1017,5 hPa 0,0 l/m 0,0 km/h (0 Bft) N 0 0 min 0,000 mm 0 W/m 7,2 C 8,9 C 0,0 km/h (0 Bft) 100 %
18.10.2017 00:40 8,9 C 8,9 C 8,9 C 89 % 1017,4 hPa 0,0 l/m 0,0 km/h (0 Bft) N 0 0 min 0,000 mm 0 W/m 7,2 C 8,9 C 0,0 km/h (0 Bft) 99 %
18.10.2017 00:50 8,9 C 8,8 C 8,9 C 89 % 1017,4 hPa 0,0 l/m 0,0 km/h (0 Bft) N 0 0 min 0,000 mm 0 W/m 7,2 C 8,9 C 0,0 km/h (0 Bft) 100 %
18.10.2017 01:00 8,9 C 8,8 C 8,9 C 89 % 1017,4 hPa 0,0 l/m 0,0 km/h (0 Bft) N 0 0 min 0,000 mm 0 W/m 7,2 C 8,9 C 0,0 km/h (0 Bft) 100 %
18.10.2017 01:10 8,8 C 8,8 C 8,9 C 89 % 1017,3 hPa 0,0 l/m 0,0 km/h (0 Bft) N 0 0 min 0,000 mm 0 W/m 7,1 C 8,8 C 0,0 km/h (0 Bft) 100 %
18.10.2017 01:20 8,6 C 8,6 C 8,8 C 90 % 1017,3 hPa 0,0 l/m 0,0 km/h (0 Bft) N 0 0 min 0,000 mm 0 W/m 7,1 C 8,6 C 0,0 km/h (0 Bft) 100 %
18.10.2017 01:30 8,5 C 8,5 C 8,6 C 90 % 1017,2 hPa 0,0 l/m 0,0 km/h (0 Bft) N 0 0 min 0,000 mm 0 W/m 7,0 C 8,5 C 0,0 km/h (0 Bft) 100 %
18.10.2017 01:40 8,4 C 8,4 C 8,6 C 89 % 1017,2 hPa 0,0 l/m 0,0 km/h (0 Bft) N 0 0 min 0,000 mm 0 W/m 6,7 C 8,4 C 0,0 km/h (0 Bft) 100 %
18.10.2017 01:50 8,4 C 8,4 C 8,4 C 90 % 1017,2 hPa 0,0 l/m 0,0 km/h (0 Bft) N 0 0 min 0,000 mm 0 W/m 6,9 C 8,4 C 0,0 km/h (0 Bft) 100 %
18.10.2017 02:00 8,3 C 8,3 C 8,4 C 90 % 1017,2 hPa 0,0 l/m 0,0 km/h (0 Bft) W 270 0 min 0,000 mm 0 W/m 6,8 C 8,3 C 1,6 km/h (1 Bft) 100 %
18.10.2017 02:10 8,3 C 8,3 C 8,3 C 90 % 1017,1 hPa 0,0 l/m 0,0 km/h (0 Bft) N 0 0 min 0,000 mm 0 W/m 6,8 C 8,3 C 0,0 km/h (0 Bft) 100 %
18.10.2017 02:20 8,1 C 8,1 C 8,3 C 90 % 1017,1 hPa 0,0 l/m 0,0 km/h (0 Bft) N 0 0 min 0,000 mm 0 W/m 6,6 C 8,1 C 0,0 km/h (0 Bft) 100 %
18.10.2017 02:30 7,8 C 7,8 C 8,1 C 90 % 1017,0 hPa 0,0 l/m 0,0 km/h (0 Bft) W 270 0 min 0,000 mm 0 W/m 6,3 C 7,8 C 1,6 km/h (1 Bft) 100 %
18.10.2017 02:40 7,7 C 7,7 C 7,8 C 90 % 1016,9 hPa 0,0 l/m 0,0 km/h (0 Bft) N 0 0 min 0,000 mm 0 W/m 6,2 C 7,7 C 0,0 km/h (0 Bft) 100 %
18.10.2017 02:50 7,5 C 7,5 C 7,7 C 90 % 1016,9 hPa 0,0 l/m 0,0 km/h (0 Bft) N 0 0 min 0,000 mm 0 W/m 6,0 C 7,5 C 0,0 km/h (0 Bft) 100 %
18.10.2017 03:00 7,3 C 7,3 C 7,5 C 90 % 1016,8 hPa 0,0 l/m 0,0 km/h (0 Bft) N 0 0 min 0,000 mm 0 W/m 5,8 C 7,3 C 0,0 km/h (0 Bft) 100 %
18.10.2017 03:10 7,3 C 7,3 C 7,4 C 90 % 1016,8 hPa 0,0 l/m 0,0 km/h (0 Bft) N 0 0 min 0,000 mm 0 W/m 5,8 C 7,3 C 0,0 km/h (0 Bft) 100 %
18.10.2017 03:20 7,2 C 7,2 C 7,3 C 90 % 1016,6 hPa 0,0 l/m 0,0 km/h (0 Bft) N 0 0 min 0,000 mm 0 W/m 5,7 C 7,2 C 0,0 km/h (0 Bft) 100 %
18.10.2017 03:30 7,0 C 7,0 C 7,2 C 90 % 1016,7 hPa 0,0 l/m 1,6 km/h (1 Bft) W 270 0 min 0,000 mm 0 W/m 5,5 C 7,0 C 6,4 km/h (2 Bft) 100 %
18.10.2017 03:40 6,9 C 6,9 C 7,0 C 90 % 1016,6 hPa 0,0 l/m 0,0 km/h (0 Bft) N-NW 337 0 min 0,000 mm 0 W/m 5,4 C 6,9 C 1,6 km/h (1 Bft) 100 %
18.10.2017 03:50 6,9 C 6,9 C 6,9 C 90 % 1016,7 hPa 0,0 l/m 0,0 km/h (0 Bft) N 0 0 min 0,000 mm 0 W/m 5,4 C 6,9 C 0,0 km/h (0 Bft) 100 %
18.10.2017 04:00 7,1 C 6,9 C 7,1 C 90 % 1016,5 hPa 0,0 l/m 0,0 km/h (0 Bft) N 0 0 min 0,000 mm 0 W/m 5,6 C 7,1 C 0,0 km/h (0 Bft) 100 %
18.10.2017 04:10 7,1 C 7,1 C 7,1 C 90 % 1016,5 hPa 0,0 l/m 0,0 km/h (0 Bft) N 0 0 min 0,000 mm 0 W/m 5,6 C 7,1 C 0,0 km/h (0 Bft) 99 %
18.10.2017 04:20 7,1 C 7,1 C 7,2 C 90 % 1016,5 hPa 0,0 l/m 0,0 km/h (0 Bft) N 0 0 min 0,000 mm 0 W/m 5,6 C 7,1 C 0,0 km/h (0 Bft) 100 %
18.10.2017 04:30 7,1 C 7,1 C 7,1 C 90 % 1016,4 hPa 0,0 l/m 0,0 km/h (0 Bft) N 360 0 min 0,000 mm 0 W/m 5,6 C 7,1 C 1,6 km/h (1 Bft) 100 %
18.10.2017 04:40 7,1 C 7,0 C 7,1 C 90 % 1016,4 hPa 0,0 l/m 0,0 km/h (0 Bft) N 0 0 min 0,000 mm 0 W/m 5,6 C 7,1 C 0,0 km/h (0 Bft) 100 %
18.10.2017 04:50 7,1 C 7,1 C 7,1 C 90 % 1016,3 hPa 0,0 l/m 0,0 km/h (0 Bft) N 0 0 min 0,000 mm 0 W/m 5,6 C 7,1 C 0,0 km/h (0 Bft) 100 %
18.10.2017 05:00 7,1 C 7,1 C 7,2 C 90 % 1016,2 hPa 0,0 l/m 0,0 km/h (0 Bft) N 0 0 min 0,000 mm 0 W/m 5,6 C 7,1 C 0,0 km/h (0 Bft) 100 %
18.10.2017 05:10 7,1 C 7,1 C 7,1 C 90 % 1016,2 hPa 0,0 l/m 0,0 km/h (0 Bft) N 0 0 min 0,000 mm 0 W/m 5,6 C 7,1 C 0,0 km/h (0 Bft) 100 %
18.10.2017 05:20 6,9 C 6,9 C 7,1 C 90 % 1016,2 hPa 0,0 l/m 0,0 km/h (0 Bft) N 0 0 min 0,000 mm 0 W/m 5,4 C 6,9 C 0,0 km/h (0 Bft) 100 %
18.10.2017 05:30 6,7 C 6,7 C 6,9 C 90 % 1016,2 hPa 0,0 l/m 0,0 km/h (0 Bft) N 360 0 min 0,000 mm 0 W/m 5,2 C 6,7 C 3,2 km/h (1 Bft) 100 %
18.10.2017 05:40 6,4 C 6,4 C 6,7 C 90 % 1016,1 hPa 0,0 l/m 0,0 km/h (0 Bft) N 0 0 min 0,000 mm 0 W/m 4,9 C 6,4 C 0,0 km/h (0 Bft) 100 %
18.10.2017 05:50 6,3 C 6,3 C 6,4 C 90 % 1016,3 hPa 0,0 l/m 0,0 km/h (0 Bft) N 0 0 min 0,000 mm 0 W/m 4,8 C 6,3 C 0,0 km/h (0 Bft) 100 %
18.10.2017 06:00 6,2 C 6,2 C 6,3 C 90 % 1016,3 hPa 0,0 l/m 0,0 km/h (0 Bft) N 0 0 min 0,000 mm 0 W/m 4,7 C 6,2 C 0,0 km/h (0 Bft) 100 %
18.10.2017 06:10 6,2 C 6,1 C 6,2 C 90 % 1016,3 hPa 0,0 l/m 0,0 km/h (0 Bft) N 0 0 min 0,000 mm 0 W/m 4,7 C 6,2 C 0,0 km/h (0 Bft) 100 %
18.10.2017 06:20 6,2 C 6,1 C 6,2 C 90 % 1016,3 hPa 0,0 l/m 0,0 km/h (0 Bft) N 0 0 min 0,000 mm 0 W/m 4,7 C 6,2 C 0,0 km/h (0 Bft) 100 %
18.10.2017 06:30 6,2 C 6,2 C 6,2 C 90 % 1016,3 hPa 0,0 l/m 0,0 km/h (0 Bft) N 0 0 min 0,000 mm 0 W/m 4,7 C 6,2 C 0,0 km/h (0 Bft) 100 %
18.10.2017 06:40 6,3 C 6,2 C 6,3 C 90 % 1016,3 hPa 0,0 l/m 0,0 km/h (0 Bft) N 0 0 min 0,000 mm 0 W/m 4,8 C 6,3 C 0,0 km/h (0 Bft) 100 %
18.10.2017 06:50 6,4 C 6,3 C 6,4 C 90 % 1016,2 hPa 0,0 l/m 0,0 km/h (0 Bft) N 0 0 min 0,000 mm 0 W/m 4,9 C 6,4 C 0,0 km/h (0 Bft) 90 %
18.10.2017 07:00 6,3 C 6,3 C 6,4 C 90 % 1016,2 hPa 0,0 l/m 0,0 km/h (0 Bft) N 0 0 min 0,000 mm 0 W/m 4,8 C 6,3 C 0,0 km/h (0 Bft) 100 %
18.10.2017 07:10 6,1 C 6,1 C 6,3 C 90 % 1016,2 hPa 0,0 l/m 0,0 km/h (0 Bft) N 0 0 min 0,000 mm 0 W/m 4,6 C 6,1 C 0,0 km/h (0 Bft) 100 %
18.10.2017 07:20 6,1 C 6,1 C 6,2 C 90 % 1016,1 hPa 0,0 l/m 0,0 km/h (0 Bft) N 0 0 min 0,000 mm 0 W/m 4,6 C 6,1 C 0,0 km/h (0 Bft) 100 %
18.10.2017 07:30 6,1 C 6,1 C 6,2 C 90 % 1016,1 hPa 0,0 l/m 0,0 km/h (0 Bft) N 0 0 min 0,000 mm 0 W/m 4,6 C 6,1 C 0,0 km/h (0 Bft) 100 %
18.10.2017 07:40 5,9 C 5,9 C 6,1 C 90 % 1016,1 hPa 0,0 l/m 0,0 km/h (0 Bft) N 0 0 min 0,000 mm 0 W/m 4,4 C 5,9 C 0,0 km/h (0 Bft) 100 %
18.10.2017 07:50 5,8 C 5,8 C 5,9 C 90 % 1016,1 hPa 0,0 l/m 0,0 km/h (0 Bft) N 0 0 min 0,000 mm 0 W/m 4,3 C 5,8 C 0,0 km/h (0 Bft) 100 %
18.10.2017 08:00 5,7 C 5,7 C 5,8 C 90 % 1016,1 hPa 0,0 l/m 0,0 km/h (0 Bft) N 0 0 min 0,000 mm 9 W/m 4,2 C 5,7 C 0,0 km/h (0 Bft) 100 %
18.10.2017 08:10 5,7 C 5,7 C 5,7 C 90 % 1016,2 hPa 0,0 l/m 0,0 km/h (0 Bft) N 0 0 min 0,000 mm 19 W/m 4,2 C 5,7 C 0,0 km/h (0 Bft) 100 %
18.10.2017 08:20 5,6 C 5,6 C 5,7 C 90 % 1016,4 hPa 0,0 l/m 0,0 km/h (0 Bft) N 0 0 min 0,000 mm 23 W/m 4,1 C 5,6 C 0,0 km/h (0 Bft) 100 %
18.10.2017 08:30 5,7 C 5,6 C 5,7 C 90 % 1016,3 hPa 0,0 l/m 0,0 km/h (0 Bft) N 0 0 min 0,000 mm 28 W/m 4,2 C 5,7 C 0,0 km/h (0 Bft) 100 %
18.10.2017 08:40 5,8 C 5,7 C 5,8 C 90 % 1016,3 hPa 0,0 l/m 0,0 km/h (0 Bft) N 0 0 min 0,000 mm 49 W/m 4,3 C 5,8 C 0,0 km/h (0 Bft) 98 %
18.10.2017 08:50 6,0 C 5,8 C 6,0 C 90 % 1016,3 hPa 0,0 l/m 0,0 km/h (0 Bft) N 0 0 min 0,000 mm 58 W/m 4,5 C 6,0 C 0,0 km/h (0 Bft) 98 %
18.10.2017 09:00 6,2 C 6,0 C 6,2 C 91 % 1016,3 hPa 0,0 l/m 0,0 km/h (0 Bft) N 0 0 min 0,025 mm 63 W/m 4,8 C 6,2 C 0,0 km/h (0 Bft) 98 %
18.10.2017 09:10 6,4 C 6,2 C 6,4 C 90 % 1016,3 hPa 0,0 l/m 0,0 km/h (0 Bft) N 0 10 min 0,000 mm 153 W/m 4,9 C 6,4 C 0,0 km/h (0 Bft) 98 %
18.10.2017 09:20 7,0 C 6,4 C 7,0 C 91 % 1016,2 hPa 0,0 l/m 0,0 km/h (0 Bft) N 0 10 min 0,000 mm 186 W/m 5,6 C 7,0 C 0,0 km/h (0 Bft) 98 %
18.10.2017 09:30 8,0 C 7,1 C 8,0 C 91 % 1016,2 hPa 0,0 l/m 0,0 km/h (0 Bft) N 0 10 min 0,000 mm 199 W/m 6,6 C 8,0 C 0,0 km/h (0 Bft) 98 %
18.10.2017 09:40 8,0 C 7,9 C 8,0 C 91 % 1016,2 hPa 0,0 l/m 0,0 km/h (0 Bft) N 0 10 min 0,000 mm 153 W/m 6,6 C 8,0 C 0,0 km/h (0 Bft) 98 %
18.10.2017 09:50 7,9 C 7,9 C 8,1 C 90 % 1016,2 hPa 0,0 l/m 0,0 km/h (0 Bft) N 0 10 min 0,000 mm 155 W/m 6,4 C 7,9 C 0,0 km/h (0 Bft) 98 %
18.10.2017 10:00 8,2 C 7,9 C 8,2 C 90 % 1016,1 hPa 0,0 l/m 0,0 km/h (0 Bft) N 0 10 min 0,076 mm 223 W/m 6,7 C 8,2 C 0,0 km/h (0 Bft) 97 %
18.10.2017 10:10 8,4 C 8,2 C 8,5 C 90 % 1016,0 hPa 0,0 l/m 0,0 km/h (0 Bft) N 0 10 min 0,000 mm 308 W/m 6,9 C 8,4 C 0,0 km/h (0 Bft) 97 %
18.10.2017 10:20 9,4 C 8,5 C 9,4 C 91 % 1016,0 hPa 0,0 l/m 0,0 km/h (0 Bft) N-NW 337 10 min 0,000 mm 336 W/m 8,0 C 9,4 C 1,6 km/h (1 Bft) 99 %
18.10.2017 10:30 10,7 C 9,5 C 10,7 C 91 % 1016,0 hPa 0,0 l/m 0,0 km/h (0 Bft) N 0 10 min 0,000 mm 360 W/m 9,3 C 10,7 C 0,0 km/h (0 Bft) 100 %
18.10.2017 10:40 11,4 C 10,8 C 11,4 C 90 % 1016,1 hPa 0,0 l/m 0,0 km/h (0 Bft) N-NW 337 10 min 0,000 mm 383 W/m 9,8 C 11,4 C 1,6 km/h (1 Bft) 100 %
18.10.2017 10:50 11,6 C 11,4 C 11,6 C 90 % 1016,1 hPa 0,0 l/m 0,0 km/h (0 Bft) W 270 10 min 0,000 mm 397 W/m 10,0 C 11,6 C 4,8 km/h (1 Bft) 100 %
18.10.2017 11:00 11,9 C 11,7 C 11,9 C 90 % 1016,1 hPa 0,0 l/m 0,0 km/h (0 Bft) SW 225 10 min 0,152 mm 352 W/m 10,3 C 11,9 C 8,0 km/h (2 Bft) 100 %
18.10.2017 11:10 12,1 C 11,9 C 12,1 C 90 % 1016,1 hPa 0,0 l/m 1,6 km/h (1 Bft) S-SW 202 10 min 0,000 mm 401 W/m 10,5 C 12,1 C 6,4 km/h (2 Bft) 100 %
18.10.2017 11:20 12,8 C 12,1 C 12,8 C 90 % 1016,0 hPa 0,0 l/m 0,0 km/h (0 Bft) S-SW 202 10 min 0,000 mm 446 W/m 11,2 C 12,8 C 1,6 km/h (1 Bft) 100 %
18.10.2017 11:30 13,4 C 12,8 C 13,4 C 89 % 1016,0 hPa 0,0 l/m 0,0 km/h (0 Bft) S-SW 202 10 min 0,000 mm 452 W/m 11,6 C 13,4 C 4,8 km/h (1 Bft) 100 %
18.10.2017 11:40 13,7 C 13,4 C 13,7 C 89 % 1015,9 hPa 0,0 l/m 0,0 km/h (0 Bft) S-SW 202 10 min 0,000 mm 490 W/m 11,9 C 13,7 C 6,4 km/h (2 Bft) 100 %
18.10.2017 11:50 14,4 C 13,7 C 14,4 C 87 % 1015,9 hPa 0,0 l/m 1,6 km/h (1 Bft) S-SW 202 10 min 0,000 mm 492 W/m 12,3 C 14,4 C 6,4 km/h (2 Bft) 100 %
18.10.2017 12:00 14,9 C 14,4 C 14,9 C 84 % 1015,9 hPa 0,0 l/m 1,6 km/h (1 Bft) S-SW 202 10 min 0,203 mm 497 W/m 12,2 C 14,9 C 6,4 km/h (2 Bft) 100 %
18.10.2017 12:10 15,1 C 14,9 C 15,1 C 83 % 1015,9 hPa 0,0 l/m 3,2 km/h (1 Bft) S-SW 202 10 min 0,000 mm 503 W/m 12,2 C 15,1 C 8,0 km/h (2 Bft) 100 %
18.10.2017 12:20 15,3 C 15,1 C 15,3 C 82 % 1015,8 hPa 0,0 l/m 1,6 km/h (1 Bft) S-SW 202 10 min 0,000 mm 441 W/m 12,2 C 15,3 C 6,4 km/h (2 Bft) 100 %
18.10.2017 12:30 15,2 C 15,1 C 15,3 C 81 % 1015,8 hPa 0,0 l/m 3,2 km/h (1 Bft) S-SW 202 10 min 0,000 mm 244 W/m 12,0 C 15,2 C 9,7 km/h (2 Bft) 100 %
18.10.2017 12:40 15,4 C 15,2 C 15,4 C 81 % 1015,8 hPa 0,0 l/m 4,8 km/h (1 Bft) S 180 10 min 0,000 mm 543 W/m 12,2 C 15,4 C 11,3 km/h (2 Bft) 100 %
18.10.2017 12:50 15,7 C 15,4 C 15,7 C 77 % 1015,7 hPa 0,0 l/m 4,8 km/h (1 Bft) S-SW 202 10 min 0,000 mm 543 W/m 11,7 C 15,7 C 11,3 km/h (2 Bft) 100 %
18.10.2017 13:00 16,0 C 15,7 C 16,0 C 77 % 1015,6 hPa 0,0 l/m 4,8 km/h (1 Bft) S 180 10 min 0,229 mm 519 W/m 12,0 C 16,0 C 9,7 km/h (2 Bft) 100 %
18.10.2017 13:10 16,5 C 16,0 C 16,5 C 75 % 1015,4 hPa 0,0 l/m 4,8 km/h (1 Bft) S 180 10 min 0,000 mm 510 W/m 12,1 C 16,5 C 9,7 km/h (2 Bft) 100 %
18.10.2017 13:20 16,7 C 16,5 C 16,7 C 73 % 1015,3 hPa 0,0 l/m 4,8 km/h (1 Bft) S 180 10 min 0,000 mm 454 W/m 11,8 C 16,7 C 8,0 km/h (2 Bft) 100 %
18.10.2017 13:30 16,7 C 16,6 C 16,7 C 75 % 1015,2 hPa 0,0 l/m 1,6 km/h (1 Bft) S 180 10 min 0,000 mm 359 W/m 12,2 C 16,7 C 6,4 km/h (2 Bft) 100 %
18.10.2017 13:40 16,9 C 16,7 C 16,9 C 74 % 1015,0 hPa 0,0 l/m 3,2 km/h (1 Bft) S-SO 157 10 min 0,000 mm 262 W/m 12,2 C 16,9 C 8,0 km/h (2 Bft) 100 %
18.10.2017 13:50 17,1 C 16,9 C 17,1 C 73 % 1014,9 hPa 0,0 l/m 3,2 km/h (1 Bft) SO 135 10 min 0,000 mm 526 W/m 12,2 C 17,1 C 9,7 km/h (2 Bft) 100 %
18.10.2017 14:00 17,4 C 17,1 C 17,4 C 73 % 1014,8 hPa 0,0 l/m 3,2 km/h (1 Bft) S-SW 202 10 min 0,203 mm 519 W/m 12,5 C 17,4 C 11,3 km/h (2 Bft) 100 %
18.10.2017 14:10 17,7 C 17,4 C 17,7 C 70 % 1014,8 hPa 0,0 l/m 3,2 km/h (1 Bft) S-SW 202 10 min 0,000 mm 329 W/m 12,2 C 17,7 C 9,7 km/h (2 Bft) 100 %
18.10.2017 14:20 17,8 C 17,7 C 17,8 C 71 % 1014,5 hPa 0,0 l/m 1,6 km/h (1 Bft) S-SW 202 10 min 0,000 mm 485 W/m 12,5 C 17,8 C 6,4 km/h (2 Bft) 100 %
18.10.2017 14:30 17,9 C 17,8 C 17,9 C 69 % 1014,6 hPa 0,0 l/m 1,6 km/h (1 Bft) S 180 10 min 0,000 mm 480 W/m 12,1 C 17,9 C 8,0 km/h (2 Bft) 100 %
18.10.2017 14:40 18,1 C 17,9 C 18,1 C 68 % 1014,5 hPa 0,0 l/m 1,6 km/h (1 Bft) S-SW 202 10 min 0,000 mm 478 W/m 12,1 C 18,1 C 9,7 km/h (2 Bft) 99 %
18.10.2017 14:50 18,2 C 18,0 C 18,2 C 69 % 1014,4 hPa 0,0 l/m 3,2 km/h (1 Bft) S-SW 202 10 min 0,000 mm 316 W/m 12,4 C 18,2 C 11,3 km/h (2 Bft) 100 %
18.10.2017 15:00 18,3 C 18,2 C 18,3 C 70 % 1014,4 hPa 0,0 l/m 3,2 km/h (1 Bft) S-SW 202 10 min 0,152 mm 422 W/m 12,7 C 18,3 C 9,7 km/h (2 Bft) 100 %
18.10.2017 15:10 18,5 C 18,3 C 18,6 C 69 % 1014,3 hPa 0,0 l/m 1,6 km/h (1 Bft) S-SW 202 10 min 0,000 mm 443 W/m 12,7 C 18,5 C 9,7 km/h (2 Bft) 100 %
18.10.2017 15:30 18,6 C 18,3 C 18,6 C 69 % 1014,2 hPa 0,0 l/m 0,4 km/h (0 Bft) S 180 20 min 0,001 mm 272 W/m 12,8 C 18,6 C 4,8 km/h (1 Bft) 100 %
18.10.2017 15:40 18,5 C 18,5 C 18,6 C 67 % 1014,2 hPa 0,0 l/m 0,0 km/h (0 Bft) S 180 10 min 0,000 mm 313 W/m 12,3 C 18,5 C 1,6 km/h (1 Bft) 100 %
18.10.2017 15:50 18,4 C 18,4 C 18,5 C 66 % 1014,2 hPa 0,0 l/m 0,0 km/h (0 Bft) S 178 0 min 0,000 mm 49 W/m 11,9 C 18,4 C 1,6 km/h (1 Bft) 100 %
18.10.2017 16:00 18,6 C 18,4 C 18,6 C 69 % 1014,0 hPa 0,0 l/m 0,2 km/h (0 Bft) SW 215 0 min 0,153 mm 47 W/m 12,8 C 18,6 C 6,4 km/h (2 Bft) 100 %
18.10.2017 16:10 18,6 C 18,6 C 18,6 C 66 % 1013,9 hPa 0,0 l/m 0,1 km/h (0 Bft) SW 214 0 min 0,000 mm 46 W/m 12,1 C 18,6 C 4,8 km/h (1 Bft) 100 %
18.10.2017 16:20 18,6 C 18,6 C 18,6 C 68 % 1013,9 hPa 0,0 l/m 0,0 km/h (0 Bft) S-SW 202 0 min 0,000 mm 46 W/m 12,6 C 18,6 C 1,6 km/h (1 Bft) 100 %
18.10.2017 16:30 18,6 C 18,6 C 18,6 C 68 % 1014,0 hPa 0,0 l/m 0,0 km/h (0 Bft) S-SW 200 0 min 0,000 mm 44 W/m 12,6 C 18,6 C 1,6 km/h (1 Bft) 100 %
18.10.2017 16:40 18,6 C 18,6 C 18,6 C 66 % 1013,7 hPa 0,0 l/m 0,0 km/h (0 Bft) S-SW 197 0 min 0,000 mm 40 W/m 12,1 C 18,6 C 1,6 km/h (1 Bft) 100 %
18.10.2017 16:50 18,6 C 18,5 C 18,6 C 69 % 1013,6 hPa 0,0 l/m 0,0 km/h (0 Bft) S-SW 197 0 min 0,000 mm 39 W/m 12,8 C 18,6 C 0,0 km/h (0 Bft) 100 %
18.10.2017 17:00 18,4 C 18,4 C 18,6 C 69 % 1013,7 hPa 0,0 l/m 0,0 km/h (0 Bft) S-SW 193 0 min 0,025 mm 37 W/m 12,6 C 18,4 C 1,6 km/h (1 Bft) 100 %
18.10.2017 17:10 18,3 C 18,3 C 18,4 C 68 % 1013,7 hPa 0,0 l/m 0,0 km/h (0 Bft) S-SW 192 0 min 0,000 mm 33 W/m 12,3 C 18,3 C 1,6 km/h (1 Bft) 100 %
18.10.2017 17:20 18,1 C 18,1 C 18,3 C 67 % 1013,6 hPa 0,0 l/m 0,0 km/h (0 Bft) S 191 0 min 0,000 mm 32 W/m 11,9 C 18,1 C 1,6 km/h (1 Bft) 100 %
18.10.2017 17:30 18,1 C 18,1 C 18,1 C 68 % 1013,7 hPa 0,0 l/m 0,0 km/h (0 Bft) S 189 0 min 0,000 mm 28 W/m 12,1 C 18,1 C 1,6 km/h (1 Bft) 100 %
18.10.2017 17:40 18,0 C 18,0 C 18,1 C 69 % 1013,5 hPa 0,0 l/m 0,0 km/h (0 Bft) S 189 0 min 0,000 mm 25 W/m 12,2 C 18,0 C 0,0 km/h (0 Bft) 100 %
18.10.2017 17:50 17,8 C 17,8 C 18,0 C 70 % 1013,5 hPa 0,0 l/m 0,0 km/h (0 Bft) S 189 0 min 0,000 mm 21 W/m 12,3 C 17,8 C 1,6 km/h (1 Bft) 100 %
18.10.2017 18:00 17,6 C 17,6 C 17,8 C 70 % 1013,4 hPa 0,0 l/m 0,0 km/h (0 Bft) S 189 0 min 0,000 mm 16 W/m 12,1 C 17,6 C 0,0 km/h (0 Bft) 100 %
18.10.2017 18:10 17,3 C 17,3 C 17,6 C 71 % 1013,6 hPa 0,0 l/m 0,0 km/h (0 Bft) S 189 0 min 0,025 mm 12 W/m 12,0 C 17,3 C 1,6 km/h (1 Bft) 100 %
18.10.2017 18:20 16,9 C 16,9 C 17,3 C 72 % 1013,6 hPa 0,0 l/m 0,0 km/h (0 Bft) S 189 0 min 0,001 mm 5 W/m 11,8 C 16,9 C 0,0 km/h (0 Bft) 100 %
18.10.2017 18:30 16,5 C 16,5 C 16,9 C 72 % 1013,6 hPa 0,0 l/m 0,0 km/h (0 Bft) S 189 0 min 0,000 mm 0 W/m 11,4 C 16,5 C 0,0 km/h (0 Bft) 100 %
18.10.2017 18:40 15,9 C 15,9 C 16,5 C 72 % 1013,6 hPa 0,0 l/m 0,0 km/h (0 Bft) S 189 0 min 0,000 mm 0 W/m 10,9 C 15,9 C 0,0 km/h (0 Bft) 100 %
18.10.2017 18:50 15,6 C 15,6 C 15,9 C 74 % 1013,7 hPa 0,0 l/m 0,0 km/h (0 Bft) S 189 0 min 0,000 mm 0 W/m 11,0 C 15,6 C 0,0 km/h (0 Bft) 99 %
18.10.2017 19:00 15,1 C 15,1 C 15,6 C 76 % 1013,9 hPa 0,0 l/m 0,0 km/h (0 Bft) S 189 0 min 0,000 mm 0 W/m 10,9 C 15,1 C 0,0 km/h (0 Bft) 100 %
18.10.2017 19:10 14,7 C 14,7 C 15,1 C 77 % 1014,0 hPa 0,0 l/m 0,0 km/h (0 Bft) S 189 0 min 0,000 mm 0 W/m 10,7 C 14,7 C 0,0 km/h (0 Bft) 100 %
18.10.2017 19:20 14,2 C 14,2 C 14,7 C 78 % 1014,0 hPa 0,0 l/m 0,0 km/h (0 Bft) S 189 0 min 0,000 mm 0 W/m 10,4 C 14,2 C 0,0 km/h (0 Bft) 100 %
18.10.2017 19:30 13,8 C 13,8 C 14,2 C 79 % 1014,0 hPa 0,0 l/m 0,0 km/h (0 Bft) S 189 0 min 0,000 mm 0 W/m 10,2 C 13,8 C 0,0 km/h (0 Bft) 99 %
18.10.2017 19:40 13,4 C 13,4 C 13,8 C 81 % 1014,0 hPa 0,0 l/m 0,0 km/h (0 Bft) S 189 0 min 0,000 mm 0 W/m 10,2 C 13,4 C 0,0 km/h (0 Bft) 100 %
18.10.2017 19:50 13,1 C 13,1 C 13,4 C 81 % 1014,0 hPa 0,0 l/m 0,0 km/h (0 Bft) S 189 0 min 0,000 mm 0 W/m 9,9 C 13,1 C 0,0 km/h (0 Bft) 100 %
18.10.2017 20:00 12,8 C 12,8 C 13,1 C 82 % 1014,1 hPa 0,0 l/m 0,0 km/h (0 Bft) S 189 0 min 0,000 mm 0 W/m 9,8 C 12,8 C 0,0 km/h (0 Bft) 100 %
18.10.2017 20:10 12,6 C 12,6 C 12,8 C 82 % 1014,1 hPa 0,0 l/m 0,0 km/h (0 Bft) S 189 0 min 0,025 mm 0 W/m 9,6 C 12,6 C 0,0 km/h (0 Bft) 100 %
18.10.2017 20:20 12,3 C 12,3 C 12,6 C 83 % 1014,3 hPa 0,0 l/m 0,0 km/h (0 Bft) S 189 0 min 0,000 mm 0 W/m 9,5 C 12,3 C 0,0 km/h (0 Bft) 100 %
18.10.2017 20:30 12,0 C 12,0 C 12,3 C 84 % 1014,3 hPa 0,0 l/m 0,0 km/h (0 Bft) S 189 0 min 0,000 mm 0 W/m 9,4 C 12,0 C 0,0 km/h (0 Bft) 100 %
18.10.2017 20:40 11,6 C 11,6 C 12,0 C 85 % 1014,2 hPa 0,0 l/m 0,0 km/h (0 Bft) S 189 0 min 0,000 mm 0 W/m 9,2 C 11,6 C 0,0 km/h (0 Bft) 100 %
18.10.2017 20:50 11,2 C 11,2 C 11,6 C 86 % 1014,2 hPa 0,0 l/m 0,0 km/h (0 Bft) S 189 0 min 0,000 mm 0 W/m 8,9 C 11,2 C 0,0 km/h (0 Bft) 100 %
18.10.2017 21:00 10,9 C 10,9 C 11,2 C 87 % 1014,2 hPa 0,0 l/m 0,0 km/h (0 Bft) S 189 0 min 0,000 mm 0 W/m 8,8 C 10,9 C 0,0 km/h (0 Bft) 100 %
18.10.2017 21:10 10,6 C 10,6 C 10,9 C 88 % 1014,3 hPa 0,0 l/m 0,0 km/h (0 Bft) N 0 0 min 0,000 mm 0 W/m 8,7 C 10,6 C 0,0 km/h (0 Bft) 98 %
18.10.2017 21:20 10,4 C 10,4 C 10,6 C 88 % 1014,3 hPa 0,0 l/m 0,0 km/h (0 Bft) N 0 0 min 0,000 mm 0 W/m 8,5 C 10,4 C 0,0 km/h (0 Bft) 98 %
18.10.2017 21:30 10,2 C 10,2 C 10,4 C 89 % 1014,3 hPa 0,0 l/m 0,0 km/h (0 Bft) N 0 0 min 0,000 mm 0 W/m 8,5 C 10,2 C 0,0 km/h (0 Bft) 97 %
18.10.2017 21:40 10,0 C 10,0 C 10,2 C 89 % 1014,4 hPa 0,0 l/m 0,0 km/h (0 Bft) N 0 0 min 0,000 mm 0 W/m 8,3 C 10,0 C 0,0 km/h (0 Bft) 96 %
18.10.2017 21:50 9,8 C 9,8 C 10,0 C 89 % 1014,3 hPa 0,0 l/m 0,0 km/h (0 Bft) N 0 0 min 0,000 mm 0 W/m 8,1 C 9,8 C 0,0 km/h (0 Bft) 98 %
18.10.2017 22:00 9,7 C 9,7 C 9,8 C 89 % 1014,6 hPa 0,0 l/m 0,0 km/h (0 Bft) N 0 0 min 0,000 mm 0 W/m 8,0 C 9,7 C 0,0 km/h (0 Bft) 97 %
18.10.2017 22:10 9,6 C 9,6 C 9,7 C 89 % 1014,5 hPa 0,0 l/m 0,0 km/h (0 Bft) N 0 0 min 0,000 mm 0 W/m 7,9 C 9,6 C 0,0 km/h (0 Bft) 98 %
18.10.2017 22:20 9,5 C 9,4 C 9,6 C 89 % 1014,5 hPa 0,0 l/m 0,0 km/h (0 Bft) N 0 0 min 0,000 mm 0 W/m 7,8 C 9,5 C 0,0 km/h (0 Bft) 98 %
18.10.2017 22:30 9,3 C 9,2 C 9,5 C 90 % 1014,4 hPa 0,0 l/m 0,0 km/h (0 Bft) N 0 0 min 0,000 mm 0 W/m 7,7 C 9,3 C 0,0 km/h (0 Bft) 97 %
18.10.2017 22:40 9,1 C 9,1 C 9,3 C 90 % 1014,4 hPa 0,0 l/m 0,0 km/h (0 Bft) N 0 0 min 0,000 mm 0 W/m 7,5 C 9,1 C 0,0 km/h (0 Bft) 98 %
18.10.2017 22:50 9,0 C 9,0 C 9,1 C 90 % 1014,5 hPa 0,0 l/m 0,0 km/h (0 Bft) N 0 0 min 0,000 mm 0 W/m 7,4 C 9,0 C 0,0 km/h (0 Bft) 97 %
18.10.2017 23:00 8,8 C 8,8 C 9,0 C 89 % 1014,5 hPa 0,0 l/m 0,0 km/h (0 Bft) N 0 0 min 0,000 mm 0 W/m 7,1 C 8,8 C 0,0 km/h (0 Bft) 98 %
18.10.2017 23:10 8,6 C 8,6 C 8,8 C 90 % 1014,4 hPa 0,0 l/m 0,0 km/h (0 Bft) N 0 0 min 0,000 mm 0 W/m 7,1 C 8,6 C 0,0 km/h (0 Bft) 98 %
18.10.2017 23:20 8,4 C 8,4 C 8,6 C 89 % 1014,4 hPa 0,0 l/m 0,0 km/h (0 Bft) N 0 0 min 0,000 mm 0 W/m 6,7 C 8,4 C 0,0 km/h (0 Bft) 98 %
18.10.2017 23:30 8,4 C 8,4 C 8,4 C 89 % 1014,3 hPa 0,0 l/m 0,0 km/h (0 Bft) N 0 0 min 0,000 mm 0 W/m 6,7 C 8,4 C 0,0 km/h (0 Bft) 97 %
18.10.2017 23:40 8,2 C 8,2 C 8,4 C 90 % 1014,2 hPa 0,0 l/m 0,0 km/h (0 Bft) N 0 0 min 0,000 mm 0 W/m 6,7 C 8,2 C 0,0 km/h (0 Bft) 97 %
18.10.2017 23:50 8,1 C 8,1 C 8,2 C 90 % 1014,3 hPa 0,0 l/m 0,0 km/h (0 Bft) N 0 0 min 0,000 mm 0 W/m 6,6 C 8,1 C 0,0 km/h (0 Bft) 98 %
_ Min-Zeit 08:20 08:20 08:10 15:50 18:00 - 00:00 - - - - - 08:20 08:20 00:00 06:50
Minimum _ 5,6 C 5,6 C 5,7 C 66 % 1013,4 hPa - 0,0 km/h (0 Bft) - - - - - 4,1 C 5,6 C 0,0 km/h (0 Bft) 90 %
_ Max-Zeit 15:10 16:10 15:10 09:00 00:00 00:00 12:40 - - 15:30 13:00 12:40 15:30 15:30 12:40 00:10
Maximum _ 18,6 C 18,6 C 18,6 C 91 % 1017,6 hPa 0,0 l/m 4,8 km/h
S (1 Bft)
- - 20 min 0,229 mm 543 W/m 12,8 C 18,6 C 11,3 km/h
S (2 Bft)
100 %
Durchschnitt _ 11,2 C 11,1 C 11,3 C 84 % 1015,4 hPa #0,0 l/m 0,5 km/h (0 Bft) S-SW - #6:40 h #1,270 mm 253 W/m 8,5 C 11,2 C 1,9 km/h (1 Bft) 99 %
PRIVATE WETTERSTATION BILLIGHEIM-ALLFELD - www.neckar-odenwald-wetter.de - Holger Sonntag